Time;durP1;ratioP1;P1;durP2;ratioP2;P2;SDS_P1;SDS_P2;PMS_P1;PMS_P2;Temp;Humidity;BMP_temperature;BMP_pressure;BME280_temperature;BME280_humidity;BME280_pressure;Samples;Min_cycle;Max_cycle;Signal;HPM_P1;HPM_P2
2024/01/07 00:00:30;;;;;;;;;11.80;9.20;;;;;5.41;100.00;98091.78;6236140;28;96663;-55
2024/01/07 00:03:34;;;;;;;;;12.60;11.60;;;;;5.51;100.00;98100.19;6276306;27;96292;-55
2024/01/07 00:06:38;;;;;;;;;14.00;12.00;;;;;5.41;100.00;98094.44;6286528;27;96435;-55
2024/01/07 00:09:41;;;;;;;;;12.40;11.00;;;;;5.22;100.00;98095.28;6286693;27;96165;-55
2024/01/07 00:12:45;;;;;;;;;12.00;11.40;;;;;5.32;100.00;98092.19;6236307;27;97719;-55
2024/01/07 00:15:48;;;;;;;;;14.00;12.75;;;;;5.35;100.00;98095.25;6226278;28;96654;-54
2024/01/07 00:18:51;;;;;;;;;14.00;12.00;;;;;5.31;100.00;98094.03;6227052;28;96326;-55
2024/01/07 00:21:55;;;;;;;;;14.40;13.00;;;;;5.26;100.00;98103.72;6235190;27;96444;-54
2024/01/07 00:24:58;;;;;;;;;13.80;12.80;;;;;5.32;100.00;98101.03;6245023;27;96961;-54
2024/01/07 00:28:02;;;;;;;;;14.00;12.00;;;;;5.23;100.00;98110.28;6248627;27;96324;-54
2024/01/07 00:31:07;;;;;;;;;15.00;14.00;;;;;5.33;100.00;98117.88;6250587;28;96820;-55
2024/01/07 00:34:10;;;;;;;;;14.00;13.00;;;;;5.37;100.00;98111.94;6255800;27;96477;-55
2024/01/07 00:37:15;;;;;;;;;12.00;10.50;;;;;5.38;100.00;98113.53;6256217;27;96350;-54
2024/01/07 00:40:18;;;;;;;;;12.00;11.00;;;;;5.32;100.00;98118.91;6267690;27;96248;-55
2024/01/07 00:43:21;;;;;;;;;9.60;9.00;;;;;5.18;100.00;98110.88;6250008;27;96681;-54
2024/01/07 00:46:24;;;;;;;;;11.20;10.60;;;;;5.18;100.00;98112.78;6243441;27;96269;-54
2024/01/07 00:49:27;;;;;;;;;13.00;11.00;;;;;5.11;100.00;98114.59;6230340;27;96316;-54
2024/01/07 00:52:32;;;;;;;;;14.00;13.00;;;;;5.17;100.00;98114.63;6224458;28;96806;-54
2024/01/07 00:55:36;;;;;;;;;13.00;11.00;;;;;5.22;100.00;98117.50;6225248;28;96297;-54
2024/01/07 00:58:39;;;;;;;;;10.50;9.50;;;;;5.19;100.00;98114.38;6224929;27;96497;-55
2024/01/07 01:01:42;;;;;;;;;13.00;12.00;;;;;5.28;100.00;98123.03;6258331;27;96515;-54
2024/01/07 01:04:45;;;;;;;;;11.80;10.80;;;;;5.18;100.00;98118.91;6270731;27;96277;-54
2024/01/07 01:07:51;;;;;;;;;13.00;13.00;;;;;5.09;100.00;98135.34;6273488;27;96201;-55
2024/01/07 01:10:54;;;;;;;;;12.40;11.40;;;;;4.83;100.00;98135.34;6263733;27;96309;-54
2024/01/07 01:13:57;;;;;;;;;12.25;11.25;;;;;4.87;100.00;98126.72;6241607;27;96297;-55
2024/01/07 01:17:00;;;;;;;;;13.80;13.00;;;;;4.85;100.00;98136.78;6250250;28;96217;-54
2024/01/07 01:20:04;;;;;;;;;14.20;11.20;;;;;4.89;100.00;98140.66;6251009;28;96889;-55
2024/01/07 01:23:09;;;;;;;;;13.00;11.00;;;;;4.95;100.00;98137.19;6250543;28;96421;-54
2024/01/07 01:26:12;;;;;;;;;13.40;12.00;;;;;4.96;100.00;98132.69;6251737;27;97689;-54
2024/01/07 01:29:15;;;;;;;;;11.00;9.25;;;;;4.80;100.00;98142.72;6269100;27;96241;-54
2024/01/07 01:32:19;;;;;;;;;11.25;10.75;;;;;4.72;100.00;98139.44;6255531;27;96588;-54
2024/01/07 01:35:22;;;;;;;;;9.00;8.00;;;;;4.51;100.00;98148.41;6252348;27;96302;-54
2024/01/07 01:38:26;;;;;;;;;11.00;10.00;;;;;4.45;100.00;98148.41;6234457;27;96255;-54
2024/01/07 01:41:29;;;;;;;;;11.00;10.60;;;;;4.28;100.00;98154.09;6224247;28;96305;-54
2024/01/07 01:44:33;;;;;;;;;13.00;11.40;;;;;4.42;100.00;98151.47;6223285;28;96869;-54
2024/01/07 01:47:36;;;;;;;;;12.00;11.60;;;;;4.44;100.00;98154.75;6224628;28;96292;-54
2024/01/07 01:50:40;;;;;;;;;11.20;10.20;;;;;4.41;100.00;98147.13;6225168;28;96300;-54
2024/01/07 01:53:45;;;;;;;;;9.00;9.00;;;;;4.34;100.00;98145.28;6224110;28;96789;-54
2024/01/07 01:56:49;;;;;;;;;11.60;10.60;;;;;4.43;100.00;98147.78;6231603;27;96317;-54
2024/01/07 01:59:53;;;;;;;;;12.00;11.00;;;;;4.51;100.00;98161.75;6254545;27;96352;-54
2024/01/07 02:02:56;;;;;;;;;11.00;10.00;;;;;4.57;100.00;98158.28;6263398;22;96429;-58
2024/01/07 02:05:59;;;;;;;;;14.00;11.00;;;;;4.61;100.00;98159.53;6263860;27;96645;-59
2024/01/07 02:09:04;;;;;;;;;10.60;10.00;;;;;4.65;100.00;98162.59;6264470;27;96786;-59
2024/01/07 02:12:11;;;;;;;;;10.40;9.60;;;;;4.61;100.00;98162.19;6264027;27;96219;-59
2024/01/07 02:15:15;;;;;;;;;10.60;10.00;;;;;4.47;100.00;98160.50;6263338;27;96499;-59
2024/01/07 02:18:18;;;;;;;;;11.40;10.40;;;;;4.51;100.00;98168.94;6262315;27;98841;-59
2024/01/07 02:21:21;;;;;;;;;9.75;9.00;;;;;4.53;100.00;98154.38;6262512;27;96688;-59
2024/01/07 02:24:26;;;;;;;;;10.00;9.80;;;;;4.52;100.00;98167.91;6250428;27;96459;-59
2024/01/07 02:27:29;;;;;;;;;9.20;8.00;;;;;4.49;100.00;98171.81;6214339;28;96185;-59
2024/01/07 02:30:32;;;;;;;;;7.00;6.00;;;;;4.48;100.00;98161.34;6222519;27;97163;-59
2024/01/07 02:33:36;;;;;;;;;12.60;9.00;;;;;4.41;100.00;98160.47;6212451;28;96798;-59
2024/01/07 02:36:39;;;;;;;;;9.00;8.00;;;;;4.42;100.00;98164.81;6226391;22;96826;-58
2024/01/07 02:39:44;;;;;;;;;8.50;7.25;;;;;4.47;100.00;98160.50;6238285;28;96652;-59
2024/01/07 02:42:58;;;;;;;;;10.00;8.00;;;;;4.42;100.00;98159.47;6240104;28;96402;-58
2024/01/07 02:46:01;;;;;;;;;8.00;8.00;;;;;4.44;100.00;98165.44;6239570;28;96777;-58
2024/01/07 02:49:04;;;;;;;;;9.00;9.00;;;;;4.25;100.00;98154.47;6238993;28;96171;-58
2024/01/07 02:52:08;;;;;;;;;9.00;8.00;;;;;4.27;100.00;98172.97;6242140;27;96354;-59
2024/01/07 02:55:12;;;;;;;;;10.00;9.00;;;;;4.27;100.00;98168.44;6243666;28;96344;-58
2024/01/07 02:58:16;;;;;;;;;9.75;8.25;;;;;4.24;100.00;98171.53;6230170;28;96438;-58
2024/01/07 03:01:19;;;;;;;;;7.50;6.50;;;;;4.17;100.00;98178.66;6218205;28;96340;-58
2024/01/07 03:04:22;;;;;;;;;8.00;7.50;;;;;4.19;100.00;98179.28;6235527;28;96327;-58
2024/01/07 03:07:25;;;;;;;;;9.40;8.00;;;;;4.12;100.00;98174.94;6231152;28;96460;-59
2024/01/07 03:10:29;;;;;;;;;9.00;8.00;;;;;4.15;100.00;98162.03;6217522;28;96616;-59
2024/01/07 03:13:33;;;;;;;;;10.60;10.00;;;;;4.02;100.00;98169.97;6219694;28;96848;-56
2024/01/07 03:16:36;;;;;;;;;9.00;8.00;;;;;4.02;100.00;98177.97;6232489;28;96491;-56
2024/01/07 03:19:39;;;;;;;;;8.00;6.80;;;;;3.91;100.00;98167.84;6233038;28;96376;-55
2024/01/07 03:22:42;;;;;;;;;8.60;8.00;;;;;3.97;100.00;98175.06;6232770;28;96192;-55
2024/01/07 03:25:46;;;;;;;;;10.00;8.40;;;;;3.75;100.00;98154.84;6233223;28;96278;-57
2024/01/07 03:28:50;;;;;;;;;9.00;8.00;;;;;3.93;100.00;98179.97;6227743;28;97707;-56
2024/01/07 03:31:53;;;;;;;;;8.00;8.00;;;;;3.83;100.00;98184.00;6232045;28;96194;-56
2024/01/07 03:34:57;;;;;;;;;8.00;8.00;;;;;3.73;100.00;98184.38;6214617;28;96306;-56
2024/01/07 03:38:00;;;;;;;;;9.40;8.00;;;;;3.62;100.00;98178.75;6222580;28;98365;-56
2024/01/07 03:41:05;;;;;;;;;6.00;5.00;;;;;3.54;100.00;98166.41;6231278;28;96238;-56
2024/01/07 03:44:08;;;;;;;;;7.60;7.00;;;;;3.37;100.00;98171.19;6230814;28;96246;-55
2024/01/07 03:47:12;;;;;;;;;9.00;9.00;;;;;3.49;100.00;98185.63;6231092;28;96686;-55
2024/01/07 03:50:15;;;;;;;;;5.60;5.60;;;;;3.53;100.00;98182.56;6245848;28;96248;-56
2024/01/07 03:53:18;;;;;;;;;6.50;6.00;;;;;3.55;100.00;98189.38;6228759;28;96352;-55
2024/01/07 03:56:22;;;;;;;;;6.00;6.00;;;;;3.36;100.00;98190.88;6228738;28;98938;-56
2024/01/07 03:59:26;;;;;;;;;6.00;5.25;;;;;3.41;100.00;98204.44;6230085;28;96269;-56
2024/01/07 04:02:29;;;;;;;;;6.00;6.00;;;;;3.43;100.00;98194.41;6230061;28;96312;-57
2024/01/07 04:05:33;;;;;;;;;6.80;6.00;;;;;3.51;100.00;98201.44;6229003;28;96322;-56
2024/01/07 04:08:36;;;;;;;;;6.50;6.50;;;;;3.47;100.00;98208.16;6229571;28;96306;-56
2024/01/07 04:11:41;;;;;;;;;8.60;7.60;;;;;3.35;100.00;98204.38;6229317;28;96804;-56
2024/01/07 04:14:45;;;;;;;;;6.75;6.00;;;;;3.30;100.00;98204.13;6228445;28;96463;-55
2024/01/07 04:17:48;;;;;;;;;6.00;5.40;;;;;3.38;100.00;98201.31;6228369;28;96200;-56
2024/01/07 04:20:51;;;;;;;;;6.20;6.00;;;;;3.31;100.00;98201.28;6227842;28;96374;-56
2024/01/07 04:23:54;;;;;;;;;6.20;6.00;;;;;3.12;100.00;98203.78;6227264;28;96347;-58
2024/01/07 04:26:58;;;;;;;;;6.00;6.00;;;;;3.10;100.00;98214.59;6220682;28;97466;-59
2024/01/07 04:30:02;;;;;;;;;6.00;5.00;;;;;3.13;100.00;98219.53;6211596;28;96434;-59
2024/01/07 04:33:06;;;;;;;;;7.00;7.00;;;;;3.14;100.00;98210.53;6215911;28;96559;-59
2024/01/07 04:36:09;;;;;;;;;6.00;5.80;;;;;3.11;100.00;98213.59;6209174;28;96489;-59
2024/01/07 04:39:12;;;;;;;;;16.20;15.00;;;;;3.15;100.00;98224.69;6215791;28;96379;-59
2024/01/07 04:42:18;;;;;;;;;7.00;7.00;;;;;3.10;100.00;98211.13;6215370;28;96326;-59
2024/01/07 04:45:21;;;;;;;;;3.60;3.00;;;;;2.94;100.00;98225.50;6215629;28;96568;-59
2024/01/07 04:48:24;;;;;;;;;5.60;5.00;;;;;3.06;100.00;98224.00;6197971;28;96279;-59
2024/01/07 04:51:27;;;;;;;;;5.00;5.00;;;;;3.10;100.00;98233.25;6215787;28;96387;-58
2024/01/07 04:54:31;;;;;;;;;5.75;5.00;;;;;2.97;100.00;98228.63;6215334;28;96625;-59
2024/01/07 04:57:35;;;;;;;;;6.60;6.60;;;;;2.98;100.00;98237.44;6197673;28;98655;-59
2024/01/07 05:00:38;;;;;;;;;6.00;5.00;;;;;3.03;100.00;98243.00;6215389;28;97845;-59
2024/01/07 05:03:42;;;;;;;;;8.00;7.00;;;;;3.09;100.00;98234.25;6211052;28;96286;-59
2024/01/07 05:06:45;;;;;;;;;5.60;5.60;;;;;2.95;100.00;98240.47;6213301;28;96386;-59
2024/01/07 05:09:48;;;;;;;;;7.00;7.00;;;;;3.00;100.00;98244.22;6214638;28;96279;-59
2024/01/07 05:12:53;;;;;;;;;5.00;4.00;;;;;3.12;100.00;98241.06;6195768;28;98345;-58
2024/01/07 05:15:56;;;;;;;;;6.60;6.20;;;;;3.09;100.00;98255.56;6216009;28;96667;-59
2024/01/07 05:18:59;;;;;;;;;6.60;6.00;;;;;2.92;100.00;98249.66;6194002;28;98884;-58
2024/01/07 05:22:03;;;;;;;;;6.00;5.00;;;;;3.07;100.00;98246.13;6213104;28;96209;-59
2024/01/07 05:25:08;;;;;;;;;6.00;6.00;;;;;2.98;100.00;98246.22;6216948;28;96374;-59
2024/01/07 05:28:12;;;;;;;;;4.60;4.60;;;;;2.92;100.00;98256.81;6213007;28;96340;-59
2024/01/07 05:31:16;;;;;;;;;4.50;4.00;;;;;3.11;100.00;98255.38;6212174;28;96290;-58
2024/01/07 05:34:20;;;;;;;;;6.00;5.00;;;;;3.15;100.00;98256.66;6231873;28;96936;-59
2024/01/07 05:37:23;;;;;;;;;4.00;4.00;;;;;3.21;100.00;98245.25;6226793;28;96138;-59
2024/01/07 05:40:26;;;;;;;;;6.00;5.00;;;;;3.07;100.00;98259.44;6212687;28;97578;-59
2024/01/07 05:43:30;;;;;;;;;6.00;6.00;;;;;2.98;100.00;98264.88;6194757;28;98705;-59
2024/01/07 05:46:48;;;;;;;;;5.00;4.00;;;;;2.96;100.00;98266.09;6211573;28;96830;-59
2024/01/07 05:49:52;;;;;;;;;5.40;5.40;;;;;2.88;100.00;98264.34;6209799;28;96433;-59
2024/01/07 05:52:55;;;;;;;;;5.40;5.00;;;;;2.83;100.00;98261.44;6211776;28;96376;-59
2024/01/07 05:55:58;;;;;;;;;5.00;5.00;;;;;2.87;100.00;98257.41;6210755;28;96342;-59
2024/01/07 05:59:03;;;;;;;;;7.00;7.00;;;;;2.62;100.00;98253.41;6210913;28;97104;-59
2024/01/07 06:02:06;;;;;;;;;7.20;6.80;;;;;2.68;100.00;98259.84;6225052;28;96291;-59
2024/01/07 06:05:09;;;;;;;;;6.00;6.00;;;;;2.53;100.00;98265.19;6210712;28;96683;-59
2024/01/07 06:08:13;;;;;;;;;6.40;6.40;;;;;2.70;100.00;98268.44;6212432;28;98025;-59
2024/01/07 06:11:19;;;;;;;;;6.60;6.00;;;;;2.86;100.00;98276.22;6213318;28;96283;-59
2024/01/07 06:14:24;;;;;;;;;6.00;5.00;;;;;3.03;100.00;98282.94;6213426;28;96226;-59
2024/01/07 06:17:27;;;;;;;;;8.00;7.00;;;;;2.98;100.00;98280.03;6211983;28;96844;-59
2024/01/07 06:20:30;;;;;;;;;6.00;5.00;;;;;2.91;100.00;98287.94;6212856;28;96377;-59
2024/01/07 06:23:34;;;;;;;;;7.80;7.00;;;;;2.62;100.00;98285.34;6212456;28;96330;-58
2024/01/07 06:26:37;;;;;;;;;6.00;6.00;;;;;2.43;100.00;98292.06;6221720;28;96219;-58
2024/01/07 06:29:42;;;;;;;;;7.00;6.00;;;;;2.49;100.00;98283.31;6215674;28;96290;-58
2024/01/07 06:32:45;;;;;;;;;8.00;7.60;;;;;2.52;100.00;98288.28;6179149;28;96650;-58
2024/01/07 06:35:48;;;;;;;;;8.00;8.00;;;;;2.63;100.00;98295.00;6193952;28;96834;-58
2024/01/07 06:38:51;;;;;;;;;7.00;6.00;;;;;2.76;100.00;98294.31;6195090;28;96426;-58
2024/01/07 06:41:54;;;;;;;;;7.00;7.00;;;;;2.56;100.00;98289.56;6212761;28;96253;-58
2024/01/07 06:44:59;;;;;;;;;8.00;7.00;;;;;2.83;100.00;98305.88;6202675;28;96656;-56
2024/01/07 06:48:02;;;;;;;;;7.00;7.00;;;;;2.91;100.00;98308.41;6246894;28;97117;-57
2024/01/07 06:51:05;;;;;;;;;7.60;7.00;;;;;3.01;100.00;98308.94;6234441;28;96277;-56
2024/01/07 06:54:08;;;;;;;;;9.60;9.00;;;;;3.14;100.00;98316.25;6234378;28;96224;-56
2024/01/07 06:57:16;;;;;;;;;10.40;8.60;;;;;3.25;100.00;98321.91;6232583;28;96299;-56
2024/01/07 07:00:21;;;;;;;;;10.00;9.80;;;;;3.23;100.00;98315.94;6234947;28;96314;-57
2024/01/07 07:03:25;;;;;;;;;11.75;10.75;;;;;3.32;100.00;98317.47;6234951;28;96381;-56
2024/01/07 07:06:28;;;;;;;;;10.60;8.60;;;;;3.31;100.00;98331.00;6236429;28;96730;-57
2024/01/07 07:09:31;;;;;;;;;12.00;11.50;;;;;3.35;100.00;98333.09;6219129;28;96312;-56
2024/01/07 07:12:35;;;;;;;;;9.00;9.00;;;;;3.33;100.00;98340.44;6242264;28;96446;-56
2024/01/07 07:15:39;;;;;;;;;11.00;10.00;;;;;3.17;100.00;98334.53;6250433;28;96306;-56
2024/01/07 07:18:42;;;;;;;;;8.00;7.80;;;;;3.14;100.00;98337.56;6247610;28;96345;-56
2024/01/07 07:21:46;;;;;;;;;9.40;8.00;;;;;3.26;100.00;98334.22;6212116;28;98427;-56
2024/01/07 07:24:49;;;;;;;;;7.00;6.75;;;;;2.99;100.00;98333.09;6248280;28;96401;-56
2024/01/07 07:27:52;;;;;;;;;9.00;8.00;;;;;3.17;100.00;98331.88;6248668;28;96294;-56
2024/01/07 07:30:57;;;;;;;;;10.00;8.60;;;;;3.30;100.00;98347.97;6246911;28;96359;-56
2024/01/07 07:34:00;;;;;;;;;9.00;8.00;;;;;3.23;100.00;98345.25;6248041;28;96284;-56
2024/01/07 07:37:04;;;;;;;;;10.00;10.00;;;;;3.31;100.00;98354.97;6235466;27;96284;-56
2024/01/07 07:40:08;;;;;;;;;10.25;9.75;;;;;3.38;100.00;98361.19;6238788;28;96295;-57
2024/01/07 07:43:12;;;;;;;;;10.00;9.00;;;;;3.46;100.00;98351.25;6239594;28;96565;-56
2024/01/07 07:46:16;;;;;;;;;11.00;10.75;;;;;3.49;100.00;98350.84;6241123;28;98473;-57
2024/01/07 07:49:20;;;;;;;;;11.00;10.80;;;;;3.60;100.00;98354.03;6237780;28;96350;-56
2024/01/07 07:52:25;;;;;;;;;10.80;9.80;;;;;3.63;100.00;98361.63;6247592;28;97027;-56
2024/01/07 07:55:28;;;;;;;;;10.00;10.00;;;;;3.69;100.00;98367.03;6226435;28;96211;-61
2024/01/07 07:58:31;;;;;;;;;10.00;9.50;;;;;3.61;100.00;98369.84;6215038;28;96354;-58
2024/01/07 08:01:36;;;;;;;;;8.40;7.40;;;;;3.41;100.00;98372.31;6216070;28;96566;-58
2024/01/07 08:04:41;;;;;;;;;8.50;7.50;;;;;3.32;100.00;98380.59;6219660;28;97132;-58
2024/01/07 08:07:44;;;;;;;;;8.80;8.40;;;;;3.47;100.00;98384.03;6214993;28;96283;-58
2024/01/07 08:10:47;;;;;;;;;10.00;9.00;;;;;3.58;100.00;98385.38;6214113;28;96366;-58
2024/01/07 08:13:50;;;;;;;;;10.40;9.00;;;;;3.74;100.00;98396.63;6214581;28;98434;-58
2024/01/07 08:16:54;;;;;;;;;8.80;8.80;;;;;3.88;100.00;98387.72;6213200;28;96236;-58
2024/01/07 08:19:57;;;;;;;;;9.60;8.40;;;;;3.87;100.00;98396.75;6216511;28;96302;-59
2024/01/07 08:23:01;;;;;;;;;12.00;11.00;;;;;3.82;100.00;98395.66;6214155;28;96446;-58
2024/01/07 08:26:04;;;;;;;;;11.25;10.75;;;;;3.78;100.00;98402.38;6214935;28;96229;-58
2024/01/07 08:29:08;;;;;;;;;9.60;9.60;;;;;3.64;100.00;98405.94;6209570;28;96271;-58
2024/01/07 08:32:12;;;;;;;;;12.60;11.00;;;;;3.72;100.00;98401.31;6211919;28;96296;-58
2024/01/07 08:35:16;;;;;;;;;9.00;9.00;;;;;3.68;100.00;98378.72;6213474;28;96598;-58
2024/01/07 08:38:22;;;;;;;;;9.80;9.00;;;;;3.90;100.00;98399.03;6213668;28;98072;-58
2024/01/07 08:41:25;;;;;;;;;9.00;8.50;;;;;3.86;100.00;98399.63;6210138;28;96247;-58
2024/01/07 08:44:28;;;;;;;;;8.60;8.00;;;;;3.92;100.00;98401.50;6212432;28;96870;-58
2024/01/07 08:47:33;;;;;;;;;10.20;10.20;;;;;3.79;100.00;98399.53;6206240;28;96621;-58
2024/01/07 08:50:42;;;;;;;;;12.25;11.25;;;;;3.71;100.00;98401.53;6208420;28;96257;-59
2024/01/07 08:53:45;;;;;;;;;11.00;11.00;;;;;3.91;100.00;98411.34;6208076;28;96234;-58
2024/01/07 08:56:49;;;;;;;;;9.50;9.00;;;;;3.93;100.00;98403.97;6207769;28;96249;-58
2024/01/07 08:59:52;;;;;;;;;9.80;9.00;;;;;3.86;100.00;98395.09;6214003;28;96445;-58
2024/01/07 09:02:57;;;;;;;;;10.00;9.00;;;;;3.91;100.00;98414.00;6210376;28;96551;-58
2024/01/07 09:06:00;;;;;;;;;9.20;8.20;;;;;4.05;100.00;98419.47;6230570;28;96772;-58
2024/01/07 09:09:05;;;;;;;;;12.00;11.00;;;;;4.03;100.00;98414.31;6242706;28;96463;-56
2024/01/07 09:12:09;;;;;;;;;11.40;11.00;;;;;4.05;100.00;98420.31;6240393;28;96390;-57
2024/01/07 09:15:12;;;;;;;;;12.40;12.00;;;;;3.90;100.00;98424.88;6236912;28;96542;-56
2024/01/07 09:18:17;;;;;;;;;11.00;10.00;;;;;3.98;100.00;98418.59;6235053;28;96375;-56
2024/01/07 09:21:20;;;;;;;;;11.50;11.00;;;;;4.00;100.00;98420.06;6235308;28;96812;-56
2024/01/07 09:24:23;;;;;;;;;11.40;11.00;;;;;4.05;100.00;98422.97;6233465;28;96294;-56
2024/01/07 09:27:26;;;;;;;;;11.00;10.00;;;;;4.02;100.00;98419.84;6228431;28;96516;-56
2024/01/07 09:30:29;;;;;;;;;12.60;12.00;;;;;4.04;100.00;98428.50;6222825;28;96394;-56
2024/01/07 09:33:34;;;;;;;;;14.60;12.40;;;;;4.05;100.00;98420.31;6218897;28;96254;-56
2024/01/07 09:36:37;;;;;;;;;15.00;13.00;;;;;4.08;100.00;98419.09;6223752;28;97346;-56
2024/01/07 09:39:40;;;;;;;;;14.00;13.40;;;;;4.01;100.00;98424.34;6227297;28;98016;-57
2024/01/07 09:42:44;;;;;;;;;11.00;10.20;;;;;4.14;100.00;98418.31;6225474;28;96823;-57
2024/01/07 09:45:48;;;;;;;;;11.00;9.60;;;;;4.05;100.00;98420.31;6205947;28;96478;-58
2024/01/07 09:48:53;;;;;;;;;12.00;11.00;;;;;3.95;100.00;98425.13;6224819;28;96464;-57
2024/01/07 09:52:01;;;;;;;;;12.00;10.00;;;;;4.03;100.00;98421.50;6234865;28;96609;-58
2024/01/07 09:55:08;;;;;;;;;11.80;10.00;;;;;3.85;100.00;98396.13;6258536;27;96309;-59
2024/01/07 09:58:12;;;;;;;;;11.00;10.00;;;;;4.07;100.00;98417.44;6250210;27;98342;-59
2024/01/07 10:01:15;;;;;;;;;10.80;10.80;;;;;4.07;100.00;98415.59;6259661;28;96457;-58
2024/01/07 10:04:23;;;;;;;;;13.50;12.00;;;;;4.15;100.00;98422.66;6237055;28;97022;-59
2024/01/07 10:07:26;;;;;;;;;12.00;11.00;;;;;4.19;100.00;98416.72;6237320;28;98626;-58
2024/01/07 10:10:30;;;;;;;;;13.20;12.40;;;;;4.16;100.00;98419.75;6264300;28;96674;-58
2024/01/07 10:13:33;;;;;;;;;12.00;10.50;;;;;4.19;100.00;98418.56;6225121;28;96972;-58
2024/01/07 10:16:36;;;;;;;;;14.00;13.00;;;;;4.23;100.00;98419.84;6242689;28;96266;-58
2024/01/07 10:19:41;;;;;;;;;14.00;12.50;;;;;4.13;100.00;98416.66;6241647;28;96365;-60
2024/01/07 10:22:48;;;;;;;;;11.40;11.00;;;;;4.13;100.00;98422.81;6231497;28;97847;-58
2024/01/07 10:25:51;;;;;;;;;12.00;11.00;;;;;4.08;100.00;98421.75;6225388;28;96724;-59
2024/01/07 10:28:54;;;;;;;;;13.40;13.40;;;;;3.99;100.00;98417.56;6241761;28;96329;-59
2024/01/07 10:31:58;;;;;;;;;14.60;13.00;;;;;4.06;100.00;98413.09;6240818;28;96941;-59
2024/01/07 10:35:05;;;;;;;;;12.00;11.00;;;;;4.10;100.00;98412.56;6241332;28;96798;-59
2024/01/07 10:38:09;;;;;;;;;11.80;9.80;;;;;4.00;100.00;98409.38;6241415;28;96511;-58
2024/01/07 10:41:12;;;;;;;;;11.00;11.00;;;;;4.00;100.00;98408.56;6225367;28;96656;-59
2024/01/07 10:44:15;;;;;;;;;14.00;12.40;;;;;4.00;100.00;98401.38;6266814;28;96241;-59
2024/01/07 10:47:24;;;;;;;;;12.00;11.00;;;;;3.88;100.00;98408.22;6267619;28;96279;-58
2024/01/07 10:50:30;;;;;;;;;12.00;11.80;;;;;3.94;100.00;98402.16;6266853;27;96191;-59
2024/01/07 10:53:35;;;;;;;;;14.00;12.00;;;;;3.97;100.00;98401.75;6237019;28;96355;-59
2024/01/07 10:56:46;;;;;;;;;13.00;12.00;;;;;4.07;100.00;98393.41;6241636;28;96220;-58
2024/01/07 10:59:52;;;;;;;;;15.00;13.50;;;;;4.14;100.00;98395.16;6260757;28;96344;-59
2024/01/07 11:03:09;;;;;;;;;13.00;11.50;;;;;4.23;100.00;98387.81;6217637;28;98559;-58
2024/01/07 11:06:32;;;;;;;;;13.25;11.00;;;;;4.33;100.00;98401.66;6229180;28;96268;-59
2024/01/07 11:09:40;;;;;;;;;13.00;12.80;;;;;4.41;100.00;98390.81;6257545;28;96901;-58
2024/01/07 11:12:43;;;;;;;;;14.75;13.00;;;;;4.48;100.00;98402.38;6226463;28;96351;-57
2024/01/07 11:15:54;;;;;;;;;15.00;14.00;;;;;4.54;100.00;98401.59;6245011;28;96406;-58
2024/01/07 11:18:58;;;;;;;;;15.40;13.60;;;;;4.53;100.00;98399.13;6245225;28;96346;-58
2024/01/07 11:22:27;;;;;;;;;17.00;16.75;;;;;4.60;100.00;98405.31;6228161;28;97033;-58
2024/01/07 11:25:32;;;;;;;;;15.00;13.00;;;;;4.65;100.00;98395.69;6226327;28;96275;-58
2024/01/07 11:28:49;;;;;;;;;14.00;14.00;;;;;4.80;100.00;98395.59;6212074;28;96265;-58
2024/01/07 11:31:52;;;;;;;;;13.40;12.00;;;;;4.79;100.00;98400.09;6216948;28;96852;-58
2024/01/07 11:34:56;;;;;;;;;14.80;12.40;;;;;4.78;100.00;98403.00;6217966;28;96906;-57
2024/01/07 11:38:01;;;;;;;;;16.40;15.00;;;;;4.71;100.00;98407.44;6208189;28;96844;-58
2024/01/07 11:41:06;;;;;;;;;15.00;14.40;;;;;4.62;100.00;98411.28;6215225;28;96259;-58
2024/01/07 11:44:11;;;;;;;;;15.75;14.00;;;;;4.61;100.00;98414.97;6213586;28;96357;-58
2024/01/07 11:47:15;;;;;;;;;14.00;14.00;;;;;4.47;100.00;98414.06;6193057;28;98122;-58
2024/01/07 11:50:18;;;;;;;;;18.00;16.40;;;;;4.38;100.00;98414.41;6206443;28;96937;-58
2024/01/07 11:53:22;;;;;;;;;15.00;15.00;;;;;4.28;100.00;98404.91;6215651;28;96450;-58
2024/01/07 11:56:26;;;;;;;;;15.75;15.00;;;;;4.19;100.00;98408.72;6216039;28;96418;-57
2024/01/07 11:59:30;;;;;;;;;17.40;16.40;;;;;4.12;100.00;98415.00;6215580;28;96180;-57
2024/01/07 12:02:33;;;;;;;;;17.60;16.60;;;;;4.02;100.00;98417.16;6214723;28;96669;-58
2024/01/07 12:05:36;;;;;;;;;21.40;17.20;;;;;3.90;100.00;98415.03;6215534;28;96434;-57
2024/01/07 12:08:43;;;;;;;;;18.00;16.00;;;;;4.02;100.00;98420.66;6212888;28;96275;-58
2024/01/07 12:11:47;;;;;;;;;19.00;17.40;;;;;4.11;100.00;98418.69;6217197;28;96294;-57
2024/01/07 12:14:50;;;;;;;;;20.40;18.00;;;;;4.18;100.00;98427.59;6227497;28;98323;-58
2024/01/07 12:17:58;;;;;;;;;18.00;17.00;;;;;4.13;100.00;98419.34;6217481;28;96286;-58
2024/01/07 12:21:01;;;;;;;;;18.00;15.00;;;;;4.04;100.00;98431.16;6213528;28;98426;-57
2024/01/07 12:24:06;;;;;;;;;19.40;17.60;;;;;4.10;100.00;98431.22;6222997;28;96363;-57
2024/01/07 12:27:10;;;;;;;;;17.60;17.00;;;;;4.08;100.00;98437.75;6215458;28;96351;-58
2024/01/07 12:30:13;;;;;;;;;22.00;20.00;;;;;4.12;100.00;98444.34;6202837;28;96773;-58
2024/01/07 12:33:19;;;;;;;;;20.50;18.00;;;;;4.02;100.00;98442.00;6205628;28;96654;-57
2024/01/07 12:36:23;;;;;;;;;18.50;17.00;;;;;3.96;100.00;98442.75;6211293;28;96488;-62
2024/01/07 12:39:28;;;;;;;;;17.80;16.80;;;;;3.96;100.00;98441.97;6190170;28;96376;-62
2024/01/07 12:42:31;;;;;;;;;18.20;16.20;;;;;3.96;100.00;98456.09;6205784;28;98921;-62
2024/01/07 12:45:34;;;;;;;;;16.00;16.00;;;;;3.88;100.00;98457.06;6209870;28;96522;-62
2024/01/07 12:48:37;;;;;;;;;19.40;19.00;;;;;3.93;100.00;98456.50;6211917;28;97514;-62
2024/01/07 12:51:41;;;;;;;;;20.00;19.00;;;;;3.97;100.00;98457.75;6212349;28;96348;-61
2024/01/07 12:54:47;;;;;;;;;19.00;17.00;;;;;4.00;100.00;98456.56;6212223;28;96732;-62
2024/01/07 12:57:50;;;;;;;;;20.60;19.60;;;;;3.97;100.00;98463.09;6211893;28;96662;-61
2024/01/07 13:00:53;;;;;;;;;18.40;17.00;;;;;4.00;100.00;98467.22;6208784;28;96379;-61
2024/01/07 13:03:56;;;;;;;;;22.80;21.80;;;;;4.04;100.00;98464.00;6209207;28;96675;-62
2024/01/07 13:06:59;;;;;;;;;18.67;17.67;;;;;4.09;100.00;98466.09;6217399;28;97193;-62
2024/01/07 13:10:06;;;;;;;;;21.00;19.00;;;;;4.03;100.00;98470.34;6190733;28;98429;-61
2024/01/07 13:13:09;;;;;;;;;23.00;20.00;;;;;4.07;100.00;98484.13;6210006;28;97624;-61
2024/01/07 13:16:18;;;;;;;;;24.00;22.00;;;;;3.96;100.00;98479.31;6201077;28;100178;-61
2024/01/07 13:19:22;;;;;;;;;21.40;19.80;;;;;3.84;100.00;98478.97;6213841;28;97320;-60
2024/01/07 13:22:25;;;;;;;;;21.00;20.25;;;;;3.87;100.00;98482.06;6194472;28;99248;-61
2024/01/07 13:25:29;;;;;;;;;21.00;21.00;;;;;3.87;100.00;98490.06;6210041;28;96470;-61
2024/01/07 13:28:33;;;;;;;;;22.25;20.25;;;;;3.95;100.00;98494.47;6173148;28;96936;-63
2024/01/07 13:31:36;;;;;;;;;26.00;23.40;;;;;3.84;100.00;98481.63;6202162;28;97439;-61
2024/01/07 13:34:39;;;;;;;;;25.60;24.00;;;;;3.90;100.00;98491.53;6203007;28;96271;-63
2024/01/07 13:37:42;;;;;;;;;21.20;20.00;;;;;3.91;100.00;98494.00;6200152;28;96851;-61
2024/01/07 13:40:47;;;;;;;;;25.00;23.00;;;;;3.96;100.00;98500.63;6211461;28;96480;-63
2024/01/07 13:43:50;;;;;;;;;21.25;20.00;;;;;3.94;100.00;98506.16;6211784;28;96438;-61
2024/01/07 13:46:53;;;;;;;;;25.00;23.50;;;;;3.93;100.00;98504.50;6212684;28;96627;-58
2024/01/07 13:49:56;;;;;;;;;21.67;19.67;;;;;3.91;100.00;98506.50;6208553;28;97121;-59
2024/01/07 13:53:00;;;;;;;;;23.75;20.75;;;;;3.93;100.00;98509.81;6211363;28;96505;-58
2024/01/07 13:56:06;;;;;;;;;23.80;22.80;;;;;3.85;100.00;98510.78;6213469;28;97584;-58
2024/01/07 13:59:10;;;;;;;;;21.00;21.00;;;;;3.75;100.00;98517.41;6206745;28;97204;-58
2024/01/07 14:02:13;;;;;;;;;25.25;24.25;;;;;3.77;100.00;98518.03;6206234;28;97242;-58
2024/01/07 14:05:16;;;;;;;;;28.00;25.50;;;;;3.82;100.00;98539.63;6208439;28;96447;-59
2024/01/07 14:08:22;;;;;;;;;24.20;21.60;;;;;3.69;100.00;98531.50;6211454;28;96491;-59
2024/01/07 14:11:28;;;;;;;;;23.20;22.20;;;;;3.49;100.00;98536.56;6191947;28;96680;-59
2024/01/07 14:14:31;;;;;;;;;24.25;21.25;;;;;3.44;100.00;98542.47;6219741;27;96708;-58